sensor_id;sensor_type;location;lat;lon;timestamp;pressure;altitude;pressure_sealevel;temperature;humidity
13029;BME280;6581;42.662;23.402;2023-07-31T00:01:08;94965.59;;;22.15;83.30
13029;BME280;6581;42.662;23.402;2023-07-31T00:03:35;94966.00;;;22.14;83.36
13029;BME280;6581;42.662;23.402;2023-07-31T00:06:03;94967.09;;;22.16;84.05
13029;BME280;6581;42.662;23.402;2023-07-31T00:08:30;94963.66;;;22.16;84.22
13029;BME280;6581;42.662;23.402;2023-07-31T00:10:57;94973.88;;;22.21;84.09
13029;BME280;6581;42.662;23.402;2023-07-31T00:13:25;94973.25;;;22.17;84.50
13029;BME280;6581;42.662;23.402;2023-07-31T00:15:52;94979.34;;;22.08;84.92
13029;BME280;6581;42.662;23.402;2023-07-31T00:18:19;94984.03;;;21.95;86.19
13029;BME280;6581;42.662;23.402;2023-07-31T00:20:46;94982.06;;;21.95;86.18
13029;BME280;6581;42.662;23.402;2023-07-31T00:23:14;94975.81;;;21.98;86.47
13029;BME280;6581;42.662;23.402;2023-07-31T00:25:41;94976.56;;;21.99;86.50
13029;BME280;6581;42.662;23.402;2023-07-31T00:28:08;94968.66;;;22.04;86.12
13029;BME280;6581;42.662;23.402;2023-07-31T00:30:36;94971.03;;;22.02;86.07
13029;BME280;6581;42.662;23.402;2023-07-31T00:33:03;94965.69;;;21.90;86.90
13029;BME280;6581;42.662;23.402;2023-07-31T00:35:30;94957.38;;;21.97;86.67
13029;BME280;6581;42.662;23.402;2023-07-31T00:37:58;94950.03;;;21.97;86.72
13029;BME280;6581;42.662;23.402;2023-07-31T00:40:27;94940.00;;;21.98;86.60
13029;BME280;6581;42.662;23.402;2023-07-31T00:42:54;94944.41;;;21.92;87.36
13029;BME280;6581;42.662;23.402;2023-07-31T00:45:21;94936.59;;;21.85;87.54
13029;BME280;6581;42.662;23.402;2023-07-31T00:47:50;94942.19;;;21.90;88.09
13029;BME280;6581;42.662;23.402;2023-07-31T00:50:18;94942.19;;;21.90;88.41
13029;BME280;6581;42.662;23.402;2023-07-31T00:52:45;94948.44;;;21.87;88.82
13029;BME280;6581;42.662;23.402;2023-07-31T00:55:12;94949.19;;;21.88;89.96
13029;BME280;6581;42.662;23.402;2023-07-31T00:57:42;94951.44;;;21.67;90.28
13029;BME280;6581;42.662;23.402;2023-07-31T01:00:11;94947.38;;;21.50;92.15
13029;BME280;6581;42.662;23.402;2023-07-31T01:02:39;94943.28;;;21.46;93.11
13029;BME280;6581;42.662;23.402;2023-07-31T01:05:07;94941.69;;;21.48;93.61
13029;BME280;6581;42.662;23.402;2023-07-31T01:07:40;94936.38;;;21.45;94.27
13029;BME280;6581;42.662;23.402;2023-07-31T01:10:14;94927.91;;;21.34;95.54
13029;BME280;6581;42.662;23.402;2023-07-31T01:12:47;94927.19;;;21.20;97.10
13029;BME280;6581;42.662;23.402;2023-07-31T01:15:15;94929.69;;;21.15;98.06
13029;BME280;6581;42.662;23.402;2023-07-31T01:17:43;94921.59;;;21.15;98.42
13029;BME280;6581;42.662;23.402;2023-07-31T01:20:13;94920.59;;;21.09;99.08
13029;BME280;6581;42.662;23.402;2023-07-31T01:25:54;94910.84;;;20.90;100.00
13029;BME280;6581;42.662;23.402;2023-07-31T01:28:28;94926.03;;;20.84;100.00
13029;BME280;6581;42.662;23.402;2023-07-31T01:30:58;94915.69;;;20.82;100.00
13029;BME280;6581;42.662;23.402;2023-07-31T01:33:27;94922.34;;;20.77;100.00
13029;BME280;6581;42.662;23.402;2023-07-31T01:35:56;94922.47;;;20.87;100.00
13029;BME280;6581;42.662;23.402;2023-07-31T01:38:23;94924.94;;;20.81;100.00
13029;BME280;6581;42.662;23.402;2023-07-31T01:40:52;94919.78;;;20.74;100.00
13029;BME280;6581;42.662;23.402;2023-07-31T01:43:20;94920.84;;;20.76;100.00
13029;BME280;6581;42.662;23.402;2023-07-31T01:45:47;94912.88;;;20.73;100.00
13029;BME280;6581;42.662;23.402;2023-07-31T01:48:14;94899.00;;;20.74;100.00
13029;BME280;6581;42.662;23.402;2023-07-31T01:50:41;94915.69;;;20.69;100.00
13029;BME280;6581;42.662;23.402;2023-07-31T01:53:08;94915.16;;;20.74;100.00
13029;BME280;6581;42.662;23.402;2023-07-31T01:55:37;94914.06;;;20.59;100.00
13029;BME280;6581;42.662;23.402;2023-07-31T01:58:06;94917.50;;;20.60;100.00
13029;BME280;6581;42.662;23.402;2023-07-31T02:00:33;94926.22;;;20.64;100.00
13029;BME280;6581;42.662;23.402;2023-07-31T02:03:00;94920.75;;;20.55;100.00
13029;BME280;6581;42.662;23.402;2023-07-31T02:05:27;94927.28;;;20.54;100.00
13029;BME280;6581;42.662;23.402;2023-07-31T02:07:54;94925.81;;;20.53;100.00
13029;BME280;6581;42.662;23.402;2023-07-31T02:10:26;94938.63;;;20.61;100.00
13029;BME280;6581;42.662;23.402;2023-07-31T02:12:53;94925.47;;;20.51;100.00
13029;BME280;6581;42.662;23.402;2023-07-31T02:15:21;94933.25;;;20.61;100.00
13029;BME280;6581;42.662;23.402;2023-07-31T02:17:49;94933.44;;;20.54;100.00
13029;BME280;6581;42.662;23.402;2023-07-31T02:20:18;94942.91;;;20.46;100.00
13029;BME280;6581;42.662;23.402;2023-07-31T02:22:45;94941.63;;;20.51;100.00
13029;BME280;6581;42.662;23.402;2023-07-31T02:25:13;94942.78;;;20.50;100.00
13029;BME280;6581;42.662;23.402;2023-07-31T02:27:40;94941.84;;;20.44;100.00
13029;BME280;6581;42.662;23.402;2023-07-31T02:30:08;94944.72;;;20.49;100.00
13029;BME280;6581;42.662;23.402;2023-07-31T02:32:36;94942.03;;;20.49;100.00
13029;BME280;6581;42.662;23.402;2023-07-31T02:35:04;94939.22;;;20.40;100.00
13029;BME280;6581;42.662;23.402;2023-07-31T02:37:33;94937.53;;;20.46;100.00
13029;BME280;6581;42.662;23.402;2023-07-31T02:40:00;94940.31;;;20.43;100.00
13029;BME280;6581;42.662;23.402;2023-07-31T02:42:29;94933.66;;;20.47;100.00
13029;BME280;6581;42.662;23.402;2023-07-31T02:44:56;94947.66;;;20.55;100.00
13029;BME280;6581;42.662;23.402;2023-07-31T02:47:23;94944.41;;;20.60;100.00
13029;BME280;6581;42.662;23.402;2023-07-31T02:49:52;94943.56;;;20.63;100.00
13029;BME280;6581;42.662;23.402;2023-07-31T02:52:19;94946.25;;;20.63;100.00
13029;BME280;6581;42.662;23.402;2023-07-31T02:54:46;94946.69;;;20.74;100.00
13029;BME280;6581;42.662;23.402;2023-07-31T02:57:13;94952.84;;;20.74;100.00
13029;BME280;6581;42.662;23.402;2023-07-31T02:59:41;94959.84;;;20.85;100.00
13029;BME280;6581;42.662;23.402;2023-07-31T03:02:08;94961.78;;;20.84;100.00
13029;BME280;6581;42.662;23.402;2023-07-31T03:04:36;94958.97;;;20.88;100.00
13029;BME280;6581;42.662;23.402;2023-07-31T03:07:05;94957.78;;;20.89;100.00
13029;BME280;6581;42.662;23.402;2023-07-31T03:09:32;94961.34;;;20.98;100.00
13029;BME280;6581;42.662;23.402;2023-07-31T03:11:59;94954.09;;;20.95;100.00
13029;BME280;6581;42.662;23.402;2023-07-31T03:14:27;94958.19;;;21.00;100.00
13029;BME280;6581;42.662;23.402;2023-07-31T03:16:54;94956.25;;;21.00;100.00
13029;BME280;6581;42.662;23.402;2023-07-31T03:19:21;94949.47;;;20.96;100.00
13029;BME280;6581;42.662;23.402;2023-07-31T03:21:49;94957.88;;;20.98;100.00
13029;BME280;6581;42.662;23.402;2023-07-31T03:24:17;94957.03;;;20.88;100.00
13029;BME280;6581;42.662;23.402;2023-07-31T03:26:44;94954.88;;;20.83;100.00
13029;BME280;6581;42.662;23.402;2023-07-31T03:29:11;94963.19;;;20.76;100.00
13029;BME280;6581;42.662;23.402;2023-07-31T03:31:38;94963.59;;;20.74;100.00
13029;BME280;6581;42.662;23.402;2023-07-31T03:34:05;94958.34;;;20.71;100.00
13029;BME280;6581;42.662;23.402;2023-07-31T03:36:32;94969.75;;;20.75;100.00
13029;BME280;6581;42.662;23.402;2023-07-31T03:39:00;94964.66;;;20.64;100.00
13029;BME280;6581;42.662;23.402;2023-07-31T03:41:28;94962.84;;;20.74;100.00
13029;BME280;6581;42.662;23.402;2023-07-31T03:43:55;94978.88;;;20.77;100.00
13029;BME280;6581;42.662;23.402;2023-07-31T03:46:23;94980.94;;;20.86;100.00
13029;BME280;6581;42.662;23.402;2023-07-31T03:48:50;94979.97;;;20.93;100.00
13029;BME280;6581;42.662;23.402;2023-07-31T03:51:18;94976.19;;;21.03;100.00
13029;BME280;6581;42.662;23.402;2023-07-31T03:53:45;94973.19;;;21.01;100.00
13029;BME280;6581;42.662;23.402;2023-07-31T03:56:12;94983.41;;;21.06;100.00
13029;BME280;6581;42.662;23.402;2023-07-31T03:58:40;94986.75;;;21.10;100.00
13029;BME280;6581;42.662;23.402;2023-07-31T04:01:08;94989.69;;;21.15;100.00
13029;BME280;6581;42.662;23.402;2023-07-31T04:03:35;94991.38;;;21.22;100.00
13029;BME280;6581;42.662;23.402;2023-07-31T04:06:02;94996.03;;;21.21;100.00
13029;BME280;6581;42.662;23.402;2023-07-31T04:08:29;94989.91;;;21.21;100.00
13029;BME280;6581;42.662;23.402;2023-07-31T04:10:56;94984.94;;;21.07;100.00
13029;BME280;6581;42.662;23.402;2023-07-31T04:13:23;95001.63;;;21.02;100.00
13029;BME280;6581;42.662;23.402;2023-07-31T04:15:54;94994.06;;;21.09;100.00
13029;BME280;6581;42.662;23.402;2023-07-31T04:18:22;95002.91;;;21.10;100.00
13029;BME280;6581;42.662;23.402;2023-07-31T04:20:49;94998.19;;;21.14;100.00
13029;BME280;6581;42.662;23.402;2023-07-31T04:23:16;95008.19;;;21.01;100.00
13029;BME280;6581;42.662;23.402;2023-07-31T04:25:43;95006.13;;;20.92;100.00
13029;BME280;6581;42.662;23.402;2023-07-31T04:28:10;95000.88;;;21.01;100.00
13029;BME280;6581;42.662;23.402;2023-07-31T04:30:37;95003.44;;;21.05;100.00
13029;BME280;6581;42.662;23.402;2023-07-31T04:33:05;95002.91;;;21.10;100.00
13029;BME280;6581;42.662;23.402;2023-07-31T04:35:32;95006.06;;;21.21;100.00
13029;BME280;6581;42.662;23.402;2023-07-31T04:37:59;95008.81;;;21.05;100.00
13029;BME280;6581;42.662;23.402;2023-07-31T04:40:26;95006.66;;;21.00;100.00
13029;BME280;6581;42.662;23.402;2023-07-31T04:42:53;95008.06;;;21.04;100.00
13029;BME280;6581;42.662;23.402;2023-07-31T04:45:20;95005.84;;;21.15;100.00
13029;BME280;6581;42.662;23.402;2023-07-31T04:47:48;95022.50;;;21.10;100.00
13029;BME280;6581;42.662;23.402;2023-07-31T04:50:16;95011.00;;;21.22;100.00
13029;BME280;6581;42.662;23.402;2023-07-31T04:52:43;95017.91;;;21.23;100.00
13029;BME280;6581;42.662;23.402;2023-07-31T04:55:10;95008.72;;;21.08;100.00
13029;BME280;6581;42.662;23.402;2023-07-31T04:57:37;95003.16;;;21.15;100.00
13029;BME280;6581;42.662;23.402;2023-07-31T05:00:05;95008.19;;;21.13;100.00
13029;BME280;6581;42.662;23.402;2023-07-31T05:02:33;95012.94;;;21.22;100.00
13029;BME280;6581;42.662;23.402;2023-07-31T05:05:00;95015.63;;;21.22;100.00
13029;BME280;6581;42.662;23.402;2023-07-31T05:07:28;95004.13;;;21.21;100.00
13029;BME280;6581;42.662;23.402;2023-07-31T05:09:55;95002.59;;;21.33;100.00
13029;BME280;6581;42.662;23.402;2023-07-31T05:12:23;94998.06;;;21.43;100.00
13029;BME280;6581;42.662;23.402;2023-07-31T05:14:50;94999.66;;;21.53;100.00
13029;BME280;6581;42.662;23.402;2023-07-31T05:17:17;95008.22;;;21.73;100.00
13029;BME280;6581;42.662;23.402;2023-07-31T05:19:44;95004.88;;;21.69;99.61
13029;BME280;6581;42.662;23.402;2023-07-31T05:22:52;95002.94;;;21.70;99.68
13029;BME280;6581;42.662;23.402;2023-07-31T05:25:19;95003.81;;;21.66;99.01
13029;BME280;6581;42.662;23.402;2023-07-31T05:27:46;94997.13;;;21.71;98.31
13029;BME280;6581;42.662;23.402;2023-07-31T05:30:13;94990.03;;;21.64;98.72
13029;BME280;6581;42.662;23.402;2023-07-31T05:32:40;94996.59;;;21.63;99.21
13029;BME280;6581;42.662;23.402;2023-07-31T05:35:08;94995.94;;;21.72;97.61
13029;BME280;6581;42.662;23.402;2023-07-31T05:37:35;94996.44;;;21.80;97.75
13029;BME280;6581;42.662;23.402;2023-07-31T05:40:05;94997.97;;;22.15;95.41
13029;BME280;6581;42.662;23.402;2023-07-31T05:42:33;94999.66;;;22.43;94.34
13029;BME280;6581;42.662;23.402;2023-07-31T05:45:01;94996.63;;;22.41;92.52
13029;BME280;6581;42.662;23.402;2023-07-31T05:47:28;95007.38;;;22.54;91.15
13029;BME280;6581;42.662;23.402;2023-07-31T05:49:55;94999.47;;;22.38;91.84
13029;BME280;6581;42.662;23.402;2023-07-31T05:52:22;94996.34;;;22.39;92.02
13029;BME280;6581;42.662;23.402;2023-07-31T05:54:49;94998.34;;;22.48;92.22
13029;BME280;6581;42.662;23.402;2023-07-31T05:57:18;94995.13;;;22.62;90.68
13029;BME280;6581;42.662;23.402;2023-07-31T05:59:45;94994.81;;;22.82;89.35
13029;BME280;6581;42.662;23.402;2023-07-31T06:02:13;94998.34;;;23.01;87.32
13029;BME280;6581;42.662;23.402;2023-07-31T06:04:40;95002.41;;;23.05;87.07
13029;BME280;6581;42.662;23.402;2023-07-31T06:07:07;95004.47;;;23.01;85.47
13029;BME280;6581;42.662;23.402;2023-07-31T06:09:34;95010.41;;;22.87;85.79
13029;BME280;6581;42.662;23.402;2023-07-31T06:12:01;95009.75;;;22.74;85.89
13029;BME280;6581;42.662;23.402;2023-07-31T06:14:29;95007.84;;;22.62;85.39
13029;BME280;6581;42.662;23.402;2023-07-31T06:16:57;95007.59;;;22.69;84.93
13029;BME280;6581;42.662;23.402;2023-07-31T06:19:24;95013.00;;;22.47;86.13
13029;BME280;6581;42.662;23.402;2023-07-31T06:21:51;95018.97;;;22.42;86.36
13029;BME280;6581;42.662;23.402;2023-07-31T06:24:18;95007.88;;;22.40;86.68
13029;BME280;6581;42.662;23.402;2023-07-31T06:26:46;95005.09;;;22.52;86.61
13029;BME280;6581;42.662;23.402;2023-07-31T06:29:13;95017.03;;;22.42;83.88
13029;BME280;6581;42.662;23.402;2023-07-31T06:31:42;95005.75;;;22.35;84.55
13029;BME280;6581;42.662;23.402;2023-07-31T06:34:09;95003.47;;;22.33;83.00
13029;BME280;6581;42.662;23.402;2023-07-31T06:36:36;95001.03;;;22.48;82.76
13029;BME280;6581;42.662;23.402;2023-07-31T06:39:04;95012.44;;;22.52;82.17
13029;BME280;6581;42.662;23.402;2023-07-31T06:41:31;95005.91;;;22.62;80.78
13029;BME280;6581;42.662;23.402;2023-07-31T06:44:00;95001.97;;;22.76;81.19
13029;BME280;6581;42.662;23.402;2023-07-31T06:46:28;95009.06;;;22.61;81.23
13029;BME280;6581;42.662;23.402;2023-07-31T06:48:56;95002.63;;;22.36;83.07
13029;BME280;6581;42.662;23.402;2023-07-31T06:51:23;95003.59;;;22.51;82.65
13029;BME280;6581;42.662;23.402;2023-07-31T06:53:51;95026.16;;;22.36;82.69
13029;BME280;6581;42.662;23.402;2023-07-31T06:56:18;95017.44;;;22.32;83.22
13029;BME280;6581;42.662;23.402;2023-07-31T06:58:45;95019.03;;;22.51;83.24
13029;BME280;6581;42.662;23.402;2023-07-31T07:01:12;95010.50;;;22.74;82.48
13029;BME280;6581;42.662;23.402;2023-07-31T07:03:39;95022.53;;;22.82;80.41
13029;BME280;6581;42.662;23.402;2023-07-31T07:06:08;95014.00;;;22.62;81.12
13029;BME280;6581;42.662;23.402;2023-07-31T07:08:35;95009.63;;;22.34;80.47
13029;BME280;6581;42.662;23.402;2023-07-31T07:11:02;95003.34;;;22.37;80.44
13029;BME280;6581;42.662;23.402;2023-07-31T07:13:29;95005.63;;;22.38;79.70
13029;BME280;6581;42.662;23.402;2023-07-31T07:15:56;95014.09;;;22.49;79.53
13029;BME280;6581;42.662;23.402;2023-07-31T07:18:23;95019.38;;;22.53;78.44
13029;BME280;6581;42.662;23.402;2023-07-31T07:20:52;95024.25;;;22.67;78.45
13029;BME280;6581;42.662;23.402;2023-07-31T07:23:20;95012.34;;;23.57;75.84
13029;BME280;6581;42.662;23.402;2023-07-31T07:25:47;95019.16;;;24.53;69.56
13029;BME280;6581;42.662;23.402;2023-07-31T07:28:15;95022.28;;;25.53;65.16
13029;BME280;6581;42.662;23.402;2023-07-31T07:30:42;95023.66;;;25.82;62.56
13029;BME280;6581;42.662;23.402;2023-07-31T07:33:09;95023.31;;;26.80;58.35
13029;BME280;6581;42.662;23.402;2023-07-31T07:35:37;95028.03;;;26.41;57.18
13029;BME280;6581;42.662;23.402;2023-07-31T07:38:04;95045.97;;;26.00;59.30
13029;BME280;6581;42.662;23.402;2023-07-31T07:40:32;95033.91;;;26.93;55.22
13029;BME280;6581;42.662;23.402;2023-07-31T07:43:00;95029.31;;;25.93;60.15
13029;BME280;6581;42.662;23.402;2023-07-31T07:45:28;95038.38;;;25.66;62.27
13029;BME280;6581;42.662;23.402;2023-07-31T07:47:55;95049.59;;;25.08;65.41
13029;BME280;6581;42.662;23.402;2023-07-31T07:50:22;95041.09;;;24.73;66.78
13029;BME280;6581;42.662;23.402;2023-07-31T07:52:49;95038.47;;;25.06;65.89
13029;BME280;6581;42.662;23.402;2023-07-31T07:55:16;95039.19;;;25.48;64.41
13029;BME280;6581;42.662;23.402;2023-07-31T07:57:45;95051.38;;;26.48;59.87
13029;BME280;6581;42.662;23.402;2023-07-31T08:00:13;95038.41;;;26.96;56.01
13029;BME280;6581;42.662;23.402;2023-07-31T08:02:40;95054.03;;;27.30;52.73
13029;BME280;6581;42.662;23.402;2023-07-31T08:05:08;95053.53;;;27.82;50.24
13029;BME280;6581;42.662;23.402;2023-07-31T08:07:35;95038.78;;;28.08;49.47
13029;BME280;6581;42.662;23.402;2023-07-31T08:10:02;95043.38;;;27.82;48.99
13029;BME280;6581;42.662;23.402;2023-07-31T08:12:29;95040.94;;;29.22;45.08
13029;BME280;6581;42.662;23.402;2023-07-31T08:14:58;95049.59;;;29.52;44.21
13029;BME280;6581;42.662;23.402;2023-07-31T08:17:26;95046.94;;;28.49;46.15
13029;BME280;6581;42.662;23.402;2023-07-31T08:19:53;95041.16;;;28.01;47.84
13029;BME280;6581;42.662;23.402;2023-07-31T08:22:21;95030.59;;;28.75;46.97
13029;BME280;6581;42.662;23.402;2023-07-31T08:24:48;95039.75;;;28.26;47.99
13029;BME280;6581;42.662;23.402;2023-07-31T08:27:15;95045.88;;;28.41;47.80
13029;BME280;6581;42.662;23.402;2023-07-31T08:29:42;95039.03;;;27.06;50.56
13029;BME280;6581;42.662;23.402;2023-07-31T08:32:11;95045.69;;;26.75;51.08
13029;BME280;6581;42.662;23.402;2023-07-31T08:34:38;95039.75;;;26.48;52.18
13029;BME280;6581;42.662;23.402;2023-07-31T08:37:05;95042.22;;;26.22;54.00
13029;BME280;6581;42.662;23.402;2023-07-31T08:39:32;95033.63;;;25.99;54.25
13029;BME280;6581;42.662;23.402;2023-07-31T08:42:00;95038.53;;;25.86;55.45
13029;BME280;6581;42.662;23.402;2023-07-31T08:44:27;95043.19;;;25.62;54.42
13029;BME280;6581;42.662;23.402;2023-07-31T08:46:56;95044.19;;;25.41;55.51
13029;BME280;6581;42.662;23.402;2023-07-31T08:49:25;95034.34;;;25.52;56.41
13029;BME280;6581;42.662;23.402;2023-07-31T08:51:54;95037.38;;;25.54;56.48
13029;BME280;6581;42.662;23.402;2023-07-31T08:54:23;95032.91;;;25.42;55.11
13029;BME280;6581;42.662;23.402;2023-07-31T08:56:55;95038.03;;;25.97;54.21
13029;BME280;6581;42.662;23.402;2023-07-31T08:59:24;95037.22;;;26.06;52.59
13029;BME280;6581;42.662;23.402;2023-07-31T09:01:54;95028.13;;;26.32;52.88
13029;BME280;6581;42.662;23.402;2023-07-31T09:04:23;95035.47;;;26.85;51.41
13029;BME280;6581;42.662;23.402;2023-07-31T09:06:55;95036.19;;;26.41;50.23
13029;BME280;6581;42.662;23.402;2023-07-31T09:09:23;95033.06;;;25.95;52.07
13029;BME280;6581;42.662;23.402;2023-07-31T09:11:51;95030.31;;;26.19;51.63
13029;BME280;6581;42.662;23.402;2023-07-31T09:14:19;95024.97;;;26.49;51.12
13029;BME280;6581;42.662;23.402;2023-07-31T09:16:53;95018.63;;;26.66;50.38
13029;BME280;6581;42.662;23.402;2023-07-31T09:19:28;95022.09;;;26.67;49.71
13029;BME280;6581;42.662;23.402;2023-07-31T09:21:57;95013.44;;;26.54;50.43
13029;BME280;6581;42.662;23.402;2023-07-31T09:24:28;95019.72;;;26.74;49.93
13029;BME280;6581;42.662;23.402;2023-07-31T09:26:56;95027.97;;;26.80;49.15
13029;BME280;6581;42.662;23.402;2023-07-31T09:29:24;95026.91;;;26.33;49.92
13029;BME280;6581;42.662;23.402;2023-07-31T09:31:52;95017.78;;;26.22;50.50
13029;BME280;6581;42.662;23.402;2023-07-31T09:34:20;95010.16;;;26.35;49.93
13029;BME280;6581;42.662;23.402;2023-07-31T09:36:56;95017.72;;;26.31;50.13
13029;BME280;6581;42.662;23.402;2023-07-31T09:39:24;95010.28;;;26.17;50.73
13029;BME280;6581;42.662;23.402;2023-07-31T09:41:54;95008.69;;;26.49;50.63
13029;BME280;6581;42.662;23.402;2023-07-31T09:44:21;94999.03;;;27.06;50.20
13029;BME280;6581;42.662;23.402;2023-07-31T09:47:04;95011.06;;;27.49;48.00
13029;BME280;6581;42.662;23.402;2023-07-31T09:49:31;95010.66;;;27.42;47.51
13029;BME280;6581;42.662;23.402;2023-07-31T09:51:59;94998.53;;;27.77;46.58
13029;BME280;6581;42.662;23.402;2023-07-31T09:54:28;94990.03;;;27.00;47.63
13029;BME280;6581;42.662;23.402;2023-07-31T09:56:57;94994.44;;;26.83;48.79
13029;BME280;6581;42.662;23.402;2023-07-31T09:59:25;94994.06;;;26.75;49.08
13029;BME280;6581;42.662;23.402;2023-07-31T10:01:55;95001.00;;;26.76;48.96
13029;BME280;6581;42.662;23.402;2023-07-31T10:04:27;95000.44;;;26.43;49.70
13029;BME280;6581;42.662;23.402;2023-07-31T10:06:55;94996.97;;;26.72;49.20
13029;BME280;6581;42.662;23.402;2023-07-31T10:09:25;94995.56;;;27.06;48.84
13029;BME280;6581;42.662;23.402;2023-07-31T10:11:57;94996.84;;;27.10;47.92
13029;BME280;6581;42.662;23.402;2023-07-31T10:14:26;94998.84;;;26.95;47.63
13029;BME280;6581;42.662;23.402;2023-07-31T10:16:54;94995.84;;;26.93;47.70
13029;BME280;6581;42.662;23.402;2023-07-31T10:19:23;94995.13;;;27.27;48.04
13029;BME280;6581;42.662;23.402;2023-07-31T10:21:50;94994.56;;;27.23;47.45
13029;BME280;6581;42.662;23.402;2023-07-31T10:24:18;94989.00;;;27.12;46.87
13029;BME280;6581;42.662;23.402;2023-07-31T10:26:45;94998.00;;;27.04;46.80
13029;BME280;6581;42.662;23.402;2023-07-31T10:29:16;94990.22;;;26.97;47.16
13029;BME280;6581;42.662;23.402;2023-07-31T10:31:45;94989.13;;;26.88;46.68
13029;BME280;6581;42.662;23.402;2023-07-31T10:34:13;94992.63;;;27.09;45.73
13029;BME280;6581;42.662;23.402;2023-07-31T10:36:41;94993.31;;;27.39;44.47
13029;BME280;6581;42.662;23.402;2023-07-31T10:39:33;94979.00;;;27.24;44.77
13029;BME280;6581;42.662;23.402;2023-07-31T10:42:10;94976.94;;;27.33;45.05
13029;BME280;6581;42.662;23.402;2023-07-31T10:44:43;94981.97;;;27.06;45.54
13029;BME280;6581;42.662;23.402;2023-07-31T10:47:14;94979.47;;;27.22;45.68
13029;BME280;6581;42.662;23.402;2023-07-31T10:49:44;94968.66;;;27.08;44.17
13029;BME280;6581;42.662;23.402;2023-07-31T10:52:12;94970.91;;;27.44;45.02
13029;BME280;6581;42.662;23.402;2023-07-31T10:54:40;94968.81;;;27.54;43.06
13029;BME280;6581;42.662;23.402;2023-07-31T10:57:19;94969.38;;;27.58;44.25
13029;BME280;6581;42.662;23.402;2023-07-31T10:59:48;94963.94;;;27.43;43.51
13029;BME280;6581;42.662;23.402;2023-07-31T11:02:33;94964.16;;;27.40;44.08
13029;BME280;6581;42.662;23.402;2023-07-31T11:05:07;94952.16;;;27.31;43.96
13029;BME280;6581;42.662;23.402;2023-07-31T11:07:47;94956.66;;;27.34;43.94
13029;BME280;6581;42.662;23.402;2023-07-31T11:10:16;94961.13;;;27.17;44.52
13029;BME280;6581;42.662;23.402;2023-07-31T11:12:45;94949.44;;;27.11;44.85
13029;BME280;6581;42.662;23.402;2023-07-31T11:15:13;94952.78;;;27.41;44.30
13029;BME280;6581;42.662;23.402;2023-07-31T11:17:41;94958.88;;;27.51;44.00
13029;BME280;6581;42.662;23.402;2023-07-31T11:20:08;94947.53;;;27.52;43.21
13029;BME280;6581;42.662;23.402;2023-07-31T11:22:36;94960.25;;;27.81;42.88
13029;BME280;6581;42.662;23.402;2023-07-31T11:25:03;94950.31;;;28.18;42.52
13029;BME280;6581;42.662;23.402;2023-07-31T11:27:38;94946.00;;;28.38;40.75
13029;BME280;6581;42.662;23.402;2023-07-31T11:30:06;94943.44;;;28.80;40.16
13029;BME280;6581;42.662;23.402;2023-07-31T11:32:36;94961.22;;;29.07;39.45
13029;BME280;6581;42.662;23.402;2023-07-31T11:35:04;94953.78;;;28.45;39.68
13029;BME280;6581;42.662;23.402;2023-07-31T11:37:39;94952.13;;;28.27;39.92
13029;BME280;6581;42.662;23.402;2023-07-31T11:40:07;94942.06;;;28.13;39.79
13029;BME280;6581;42.662;23.402;2023-07-31T11:42:34;94945.31;;;28.43;39.93
13029;BME280;6581;42.662;23.402;2023-07-31T11:45:03;94947.81;;;28.46;39.06
13029;BME280;6581;42.662;23.402;2023-07-31T11:47:32;94939.25;;;28.28;39.29
13029;BME280;6581;42.662;23.402;2023-07-31T11:50:01;94944.91;;;28.04;39.59
13029;BME280;6581;42.662;23.402;2023-07-31T11:52:30;94928.78;;;28.00;40.11
13029;BME280;6581;42.662;23.402;2023-07-31T11:54:59;94940.34;;;27.49;40.99
13029;BME280;6581;42.662;23.402;2023-07-31T11:57:27;94940.22;;;27.44;42.18
13029;BME280;6581;42.662;23.402;2023-07-31T11:59:56;94951.63;;;27.62;42.83
13029;BME280;6581;42.662;23.402;2023-07-31T12:02:24;94933.13;;;27.66;41.65
13029;BME280;6581;42.662;23.402;2023-07-31T12:04:51;94933.59;;;27.85;41.52
13029;BME280;6581;42.662;23.402;2023-07-31T12:07:20;94931.34;;;28.09;40.73
13029;BME280;6581;42.662;23.402;2023-07-31T12:09:52;94932.19;;;28.41;40.64
13029;BME280;6581;42.662;23.402;2023-07-31T12:12:20;94932.22;;;28.47;39.47
13029;BME280;6581;42.662;23.402;2023-07-31T12:14:48;94929.84;;;28.54;38.99
13029;BME280;6581;42.662;23.402;2023-07-31T12:17:17;94923.47;;;28.11;40.14
13029;BME280;6581;42.662;23.402;2023-07-31T12:19:44;94930.59;;;28.29;39.65
13029;BME280;6581;42.662;23.402;2023-07-31T12:22:12;94915.41;;;28.48;40.15
13029;BME280;6581;42.662;23.402;2023-07-31T12:24:43;94920.50;;;28.35;40.13
13029;BME280;6581;42.662;23.402;2023-07-31T12:27:11;94923.31;;;28.46;39.97
13029;BME280;6581;42.662;23.402;2023-07-31T12:29:39;94924.41;;;28.60;39.51
13029;BME280;6581;42.662;23.402;2023-07-31T12:32:20;94908.50;;;28.53;39.96
13029;BME280;6581;42.662;23.402;2023-07-31T12:34:48;94909.78;;;28.06;40.27
13029;BME280;6581;42.662;23.402;2023-07-31T12:37:16;94915.22;;;28.06;41.20
13029;BME280;6581;42.662;23.402;2023-07-31T12:39:44;94906.75;;;27.78;42.09
13029;BME280;6581;42.662;23.402;2023-07-31T12:42:11;94915.72;;;28.04;41.68
13029;BME280;6581;42.662;23.402;2023-07-31T12:44:39;94918.38;;;27.99;41.05
13029;BME280;6581;42.662;23.402;2023-07-31T12:47:06;94902.59;;;27.83;40.89
13029;BME280;6581;42.662;23.402;2023-07-31T12:49:33;94900.47;;;27.92;40.76
13029;BME280;6581;42.662;23.402;2023-07-31T12:52:00;94907.00;;;28.00;40.98
13029;BME280;6581;42.662;23.402;2023-07-31T12:54:27;94906.72;;;27.72;41.16
13029;BME280;6581;42.662;23.402;2023-07-31T12:56:55;94900.72;;;27.68;40.86
13029;BME280;6581;42.662;23.402;2023-07-31T12:59:23;94890.19;;;27.56;41.07
13029;BME280;6581;42.662;23.402;2023-07-31T13:01:50;94898.06;;;27.33;41.83
13029;BME280;6581;42.662;23.402;2023-07-31T13:04:17;94884.91;;;27.32;42.11
13029;BME280;6581;42.662;23.402;2023-07-31T13:06:47;94879.84;;;27.80;41.19